West Hills, California
Current Conditions -  °F | °C
As of 8:51 AM on Friday 19 Dec 2014 (Local Time) from KVNY Reporting Station
Clear Clear  
Wind Chill: 10°   Ceiling: Unl
Heat Index: 10°   Visibility: 10mi
Dew Point:   Wind: 3mph
Humidity: 80%   Direction: 330°NNW
Pressure: 30.23"   Gusts: NA
Location:  34.2°N, 118.64°W
Report Text: KVNY 191651Z 33003KT 10SM CLR 10/07 A3023 RMK AO2 SLP236 T01000067
Loading
Personal Weather Stations






























Interactive Weather Map New forecast layout! Learn more

10-Day Weather Forecast

Advertisements
Track Severe Weather on mobile